sensor_id;sensor_type;location;lat;lon;timestamp;pressure;altitude;pressure_sealevel;temperature;humidity
70314;BME280;57725;47.526;18.986;2023-01-08T00:01:44;100091.78;;;7.33;97.01
70314;BME280;57725;47.526;18.986;2023-01-08T00:04:09;100088.31;;;7.33;96.74
70314;BME280;57725;47.526;18.986;2023-01-08T00:06:35;100095.22;;;7.34;96.75
70314;BME280;57725;47.526;18.986;2023-01-08T00:09:00;100094.34;;;7.35;97.00
70314;BME280;57725;47.526;18.986;2023-01-08T00:11:26;100097.78;;;7.35;96.81
70314;BME280;57725;47.526;18.986;2023-01-08T00:13:51;100090.88;;;7.34;96.85
70314;BME280;57725;47.526;18.986;2023-01-08T00:16:17;100095.22;;;7.34;96.83
70314;BME280;57725;47.526;18.986;2023-01-08T00:18:44;100100.41;;;7.35;96.98
70314;BME280;57725;47.526;18.986;2023-01-08T00:21:10;100091.78;;;7.33;97.05
70314;BME280;57725;47.526;18.986;2023-01-08T00:23:37;100091.78;;;7.33;96.98
70314;BME280;57725;47.526;18.986;2023-01-08T00:26:04;100083.13;;;7.33;96.67
70314;BME280;57725;47.526;18.986;2023-01-08T00:28:30;100072.72;;;7.33;96.97
70314;BME280;57725;47.526;18.986;2023-01-08T00:30:56;100070.97;;;7.33;96.86
70314;BME280;57725;47.526;18.986;2023-01-08T00:33:22;100065.75;;;7.33;96.73
70314;BME280;57725;47.526;18.986;2023-01-08T00:35:47;100072.69;;;7.34;96.88
70314;BME280;57725;47.526;18.986;2023-01-08T00:38:13;100065.72;;;7.35;96.99
70314;BME280;57725;47.526;18.986;2023-01-08T00:40:38;100062.31;;;7.33;96.71
70314;BME280;57725;47.526;18.986;2023-01-08T00:43:05;100062.31;;;7.33;96.91
70314;BME280;57725;47.526;18.986;2023-01-08T00:45:33;100052.75;;;7.33;96.84
70314;BME280;57725;47.526;18.986;2023-01-08T00:47:58;100063.97;;;7.35;96.84
70314;BME280;57725;47.526;18.986;2023-01-08T00:50:24;100059.72;;;7.33;96.83
70314;BME280;57725;47.526;18.986;2023-01-08T00:52:49;100059.66;;;7.34;96.79
70314;BME280;57725;47.526;18.986;2023-01-08T00:55:14;100065.72;;;7.35;96.70
70314;BME280;57725;47.526;18.986;2023-01-08T00:57:40;100069.19;;;7.35;96.73
70314;BME280;57725;47.526;18.986;2023-01-08T01:00:07;100073.53;;;7.35;96.57
70314;BME280;57725;47.526;18.986;2023-01-08T01:02:35;100073.56;;;7.33;96.87
70314;BME280;57725;47.526;18.986;2023-01-08T01:05:00;100072.69;;;7.34;96.79
70314;BME280;57725;47.526;18.986;2023-01-08T01:07:26;100075.28;;;7.34;97.00
70314;BME280;57725;47.526;18.986;2023-01-08T01:09:51;100077.84;;;7.36;96.82
70314;BME280;57725;47.526;18.986;2023-01-08T01:12:17;100073.56;;;7.33;96.76
70314;BME280;57725;47.526;18.986;2023-01-08T01:14:42;100081.34;;;7.35;96.85
70314;BME280;57725;47.526;18.986;2023-01-08T01:17:09;100077.03;;;7.34;96.49
70314;BME280;57725;47.526;18.986;2023-01-08T01:19:35;100087.38;;;7.35;96.79
70314;BME280;57725;47.526;18.986;2023-01-08T01:22:00;100077.03;;;7.34;96.71
70314;BME280;57725;47.526;18.986;2023-01-08T01:24:26;100074.38;;;7.35;96.88
70314;BME280;57725;47.526;18.986;2023-01-08T01:26:51;100075.25;;;7.36;96.71
70314;BME280;57725;47.526;18.986;2023-01-08T01:29:17;100070.94;;;7.35;96.88
70314;BME280;57725;47.526;18.986;2023-01-08T01:31:42;100068.34;;;7.35;96.80
70314;BME280;57725;47.526;18.986;2023-01-08T01:34:09;100064.88;;;7.34;96.51
70314;BME280;57725;47.526;18.986;2023-01-08T01:36:35;100057.94;;;7.35;96.78
70314;BME280;57725;47.526;18.986;2023-01-08T01:39:03;100051.88;;;7.34;96.58
70314;BME280;57725;47.526;18.986;2023-01-08T01:41:40;100046.66;;;7.34;96.67
70314;BME280;57725;47.526;18.986;2023-01-08T01:44:58;100041.44;;;7.36;96.78
70314;BME280;57725;47.526;18.986;2023-01-08T01:47:35;100038.88;;;7.34;96.80
70314;BME280;57725;47.526;18.986;2023-01-08T01:50:07;100034.53;;;7.35;96.78
70314;BME280;57725;47.526;18.986;2023-01-08T01:52:38;100029.34;;;7.33;96.86
70314;BME280;57725;47.526;18.986;2023-01-08T01:55:07;100031.06;;;7.34;96.88
70314;BME280;57725;47.526;18.986;2023-01-08T01:57:33;100023.28;;;7.33;96.72
70314;BME280;57725;47.526;18.986;2023-01-08T02:00:03;100018.94;;;7.33;96.91
70314;BME280;57725;47.526;18.986;2023-01-08T02:02:29;100015.47;;;7.34;96.73
70314;BME280;57725;47.526;18.986;2023-01-08T02:04:57;100011.09;;;7.35;96.60
70314;BME280;57725;47.526;18.986;2023-01-08T02:10:21;100001.69;;;7.31;96.87
70314;BME280;57725;47.526;18.986;2023-01-08T02:12:56;100000.75;;;7.33;97.02
70314;BME280;57725;47.526;18.986;2023-01-08T02:20:34;99996.41;;;7.34;96.69
70314;BME280;57725;47.526;18.986;2023-01-08T02:26:09;99994.66;;;7.34;96.99
70314;BME280;57725;47.526;18.986;2023-01-08T02:28:50;100004.16;;;7.35;96.73
70314;BME280;57725;47.526;18.986;2023-01-08T02:31:18;99997.25;;;7.34;96.60
70314;BME280;57725;47.526;18.986;2023-01-08T02:33:44;99996.34;;;7.35;96.50
70314;BME280;57725;47.526;18.986;2023-01-08T02:36:20;99994.66;;;7.34;96.74
70314;BME280;57725;47.526;18.986;2023-01-08T02:42:06;99989.50;;;7.33;96.84
70314;BME280;57725;47.526;18.986;2023-01-08T02:44:40;99992.91;;;7.35;96.64
70314;BME280;57725;47.526;18.986;2023-01-08T02:47:14;99987.69;;;7.35;96.89
70314;BME280;57725;47.526;18.986;2023-01-08T02:49:45;99986.03;;;7.32;96.85
70314;BME280;57725;47.526;18.986;2023-01-08T02:52:12;99977.34;;;7.33;96.78
70314;BME280;57725;47.526;18.986;2023-01-08T02:54:40;99985.16;;;7.33;96.92
70314;BME280;57725;47.526;18.986;2023-01-08T02:57:11;99982.53;;;7.33;96.76
70314;BME280;57725;47.526;18.986;2023-01-08T02:59:39;99985.09;;;7.35;96.57
70314;BME280;57725;47.526;18.986;2023-01-08T03:02:07;99978.19;;;7.34;97.05
70314;BME280;57725;47.526;18.986;2023-01-08T03:04:40;99974.78;;;7.32;96.78
70314;BME280;57725;47.526;18.986;2023-01-08T03:07:08;99972.13;;;7.33;96.59
70314;BME280;57725;47.526;18.986;2023-01-08T03:09:34;99968.66;;;7.34;96.88
70314;BME280;57725;47.526;18.986;2023-01-08T03:12:23;99964.28;;;7.35;97.00
70314;BME280;57725;47.526;18.986;2023-01-08T03:15:05;99955.72;;;7.31;96.90
70314;BME280;57725;47.526;18.986;2023-01-08T03:17:35;99963.44;;;7.34;96.64
70314;BME280;57725;47.526;18.986;2023-01-08T03:20:12;99958.28;;;7.33;96.78
70314;BME280;57725;47.526;18.986;2023-01-08T03:22:40;99959.09;;;7.35;96.83
70314;BME280;57725;47.526;18.986;2023-01-08T03:25:08;99958.25;;;7.34;96.89
70314;BME280;57725;47.526;18.986;2023-01-08T03:27:38;99957.34;;;7.35;96.83
70314;BME280;57725;47.526;18.986;2023-01-08T03:30:05;99964.28;;;7.35;96.53
70314;BME280;57725;47.526;18.986;2023-01-08T03:32:32;99959.13;;;7.33;96.96
70314;BME280;57725;47.526;18.986;2023-01-08T03:34:59;99965.16;;;7.35;96.82
70314;BME280;57725;47.526;18.986;2023-01-08T03:37:30;99948.72;;;7.33;96.81
70314;BME280;57725;47.526;18.986;2023-01-08T03:40:52;99956.50;;;7.35;96.85
70314;BME280;57725;47.526;18.986;2023-01-08T03:43:10;99955.59;;;7.36;96.93
70314;BME280;57725;47.526;18.986;2023-01-08T03:45:36;99946.06;;;7.36;96.66
70314;BME280;57725;47.526;18.986;2023-01-08T03:48:03;99938.28;;;7.35;96.90
70314;BME280;57725;47.526;18.986;2023-01-08T03:50:30;99934.84;;;7.34;96.90
70314;BME280;57725;47.526;18.986;2023-01-08T03:52:56;99929.63;;;7.34;96.85
70314;BME280;57725;47.526;18.986;2023-01-08T03:55:22;99929.59;;;7.36;96.83
70314;BME280;57725;47.526;18.986;2023-01-08T03:57:50;99929.59;;;7.36;96.87
70314;BME280;57725;47.526;18.986;2023-01-08T04:00:15;99933.09;;;7.35;96.91
70314;BME280;57725;47.526;18.986;2023-01-08T04:02:41;99934.78;;;7.36;96.86
70314;BME280;57725;47.526;18.986;2023-01-08T04:05:07;99927.06;;;7.33;97.01
70314;BME280;57725;47.526;18.986;2023-01-08T04:07:33;99933.13;;;7.33;96.68
70314;BME280;57725;47.526;18.986;2023-01-08T04:10:01;99934.84;;;7.34;96.74
70314;BME280;57725;47.526;18.986;2023-01-08T04:12:26;99940.00;;;7.36;96.63
70314;BME280;57725;47.526;18.986;2023-01-08T04:14:52;99939.16;;;7.35;96.59
70314;BME280;57725;47.526;18.986;2023-01-08T04:17:17;99930.50;;;7.35;97.04
70314;BME280;57725;47.526;18.986;2023-01-08T04:19:43;99927.94;;;7.33;96.94
70314;BME280;57725;47.526;18.986;2023-01-08T04:22:09;99935.72;;;7.33;96.90
70314;BME280;57725;47.526;18.986;2023-01-08T04:24:35;99932.19;;;7.36;96.98
70314;BME280;57725;47.526;18.986;2023-01-08T04:27:00;99940.88;;;7.35;96.87
70314;BME280;57725;47.526;18.986;2023-01-08T04:29:26;99932.19;;;7.36;96.95
70314;BME280;57725;47.526;18.986;2023-01-08T04:31:51;99933.97;;;7.34;97.02
70314;BME280;57725;47.526;18.986;2023-01-08T04:34:17;99935.69;;;7.35;96.87
70314;BME280;57725;47.526;18.986;2023-01-08T04:36:42;99924.44;;;7.34;97.02
70314;BME280;57725;47.526;18.986;2023-01-08T04:39:09;99925.31;;;7.33;96.87
70314;BME280;57725;47.526;18.986;2023-01-08T04:41:40;99931.34;;;7.35;96.89
70314;BME280;57725;47.526;18.986;2023-01-08T04:44:06;99936.53;;;7.35;96.64
70314;BME280;57725;47.526;18.986;2023-01-08T04:46:31;99945.19;;;7.36;96.71
70314;BME280;57725;47.526;18.986;2023-01-08T04:48:57;99940.00;;;7.36;97.10
70314;BME280;57725;47.526;18.986;2023-01-08T04:51:22;99945.19;;;7.36;96.81
70314;BME280;57725;47.526;18.986;2023-01-08T04:53:49;99940.00;;;7.36;96.83
70314;BME280;57725;47.526;18.986;2023-01-08T04:56:15;99942.63;;;7.34;96.83
70314;BME280;57725;47.526;18.986;2023-01-08T04:58:40;99941.75;;;7.35;96.85
70314;BME280;57725;47.526;18.986;2023-01-08T05:01:25;99938.25;;;7.36;96.58
70314;BME280;57725;47.526;18.986;2023-01-08T05:03:58;99933.09;;;7.35;96.78
70314;BME280;57725;47.526;18.986;2023-01-08T05:06:25;99933.09;;;7.35;96.68
70314;BME280;57725;47.526;18.986;2023-01-08T05:08:50;99931.41;;;7.32;96.55
70314;BME280;57725;47.526;18.986;2023-01-08T05:11:16;99927.88;;;7.35;96.73
70314;BME280;57725;47.526;18.986;2023-01-08T05:13:41;99923.56;;;7.34;96.99
70314;BME280;57725;47.526;18.986;2023-01-08T05:16:07;99927.06;;;7.33;96.71
70314;BME280;57725;47.526;18.986;2023-01-08T05:18:32;99924.44;;;7.34;96.90
70314;BME280;57725;47.526;18.986;2023-01-08T05:21:03;99920.97;;;7.34;96.94
70314;BME280;57725;47.526;18.986;2023-01-08T05:23:29;99922.69;;;7.35;96.83
70314;BME280;57725;47.526;18.986;2023-01-08T05:25:59;99927.84;;;7.36;96.99
70314;BME280;57725;47.526;18.986;2023-01-08T05:28:25;99923.53;;;7.35;97.02
70314;BME280;57725;47.526;18.986;2023-01-08T05:30:51;99920.09;;;7.35;96.84
70314;BME280;57725;47.526;18.986;2023-01-08T05:33:17;99913.19;;;7.34;96.83
70314;BME280;57725;47.526;18.986;2023-01-08T05:35:42;99909.69;;;7.35;96.79
70314;BME280;57725;47.526;18.986;2023-01-08T05:38:07;99914.00;;;7.36;96.73
70314;BME280;57725;47.526;18.986;2023-01-08T05:40:33;99907.94;;;7.35;96.89
70314;BME280;57725;47.526;18.986;2023-01-08T05:43:05;99907.94;;;7.35;96.72
70314;BME280;57725;47.526;18.986;2023-01-08T05:45:31;99908.78;;;7.36;96.93
70314;BME280;57725;47.526;18.986;2023-01-08T05:47:57;99912.25;;;7.36;96.73
70314;BME280;57725;47.526;18.986;2023-01-08T05:50:22;99890.59;;;7.36;96.96
70314;BME280;57725;47.526;18.986;2023-01-08T05:52:47;99904.47;;;7.35;96.63
70314;BME280;57725;47.526;18.986;2023-01-08T05:55:13;99888.03;;;7.34;96.60
70314;BME280;57725;47.526;18.986;2023-01-08T05:57:39;99901.88;;;7.35;96.84
70314;BME280;57725;47.526;18.986;2023-01-08T06:00:05;99894.88;;;7.37;96.89
70314;BME280;57725;47.526;18.986;2023-01-08T06:02:32;99881.94;;;7.35;96.80
70314;BME280;57725;47.526;18.986;2023-01-08T06:04:57;99884.50;;;7.37;96.68
70314;BME280;57725;47.526;18.986;2023-01-08T06:07:23;99879.31;;;7.35;96.69
70314;BME280;57725;47.526;18.986;2023-01-08T06:09:48;99875.03;;;7.34;97.01
70314;BME280;57725;47.526;18.986;2023-01-08T06:12:14;99881.94;;;7.35;96.96
70314;BME280;57725;47.526;18.986;2023-01-08T06:14:39;99890.59;;;7.36;96.75
70314;BME280;57725;47.526;18.986;2023-01-08T06:17:04;99883.66;;;7.35;96.57
70314;BME280;57725;47.526;18.986;2023-01-08T06:19:30;99881.06;;;7.35;96.91
70314;BME280;57725;47.526;18.986;2023-01-08T06:21:55;99880.22;;;7.34;96.85
70314;BME280;57725;47.526;18.986;2023-01-08T06:24:21;99881.06;;;7.35;96.78
70314;BME280;57725;47.526;18.986;2023-01-08T06:26:46;99869.09;;;7.29;96.73
70314;BME280;57725;47.526;18.986;2023-01-08T06:29:11;99874.97;;;7.36;96.78
70314;BME280;57725;47.526;18.986;2023-01-08T06:31:37;99868.97;;;7.34;97.12
70314;BME280;57725;47.526;18.986;2023-01-08T06:34:02;99866.31;;;7.35;96.65
70314;BME280;57725;47.526;18.986;2023-01-08T06:36:30;99859.53;;;7.30;96.87
70314;BME280;57725;47.526;18.986;2023-01-08T06:38:58;99867.22;;;7.34;96.96
70314;BME280;57725;47.526;18.986;2023-01-08T06:41:25;99871.53;;;7.35;96.67
70314;BME280;57725;47.526;18.986;2023-01-08T06:43:50;99869.81;;;7.34;96.91
70314;BME280;57725;47.526;18.986;2023-01-08T06:46:16;99870.66;;;7.35;96.83
70314;BME280;57725;47.526;18.986;2023-01-08T06:48:41;99881.03;;;7.36;96.81
70314;BME280;57725;47.526;18.986;2023-01-08T06:51:07;99870.66;;;7.35;96.81
70314;BME280;57725;47.526;18.986;2023-01-08T06:53:32;99873.31;;;7.33;96.54
70314;BME280;57725;47.526;18.986;2023-01-08T06:55:58;99875.03;;;7.34;96.80
70314;BME280;57725;47.526;18.986;2023-01-08T06:58:24;99869.00;;;7.32;96.90
70314;BME280;57725;47.526;18.986;2023-01-08T07:00:50;99872.41;;;7.34;96.93
70314;BME280;57725;47.526;18.986;2023-01-08T07:03:16;99870.66;;;7.35;96.85
70314;BME280;57725;47.526;18.986;2023-01-08T07:05:41;99870.63;;;7.36;96.93
70314;BME280;57725;47.526;18.986;2023-01-08T07:08:11;99868.03;;;7.36;96.84
70314;BME280;57725;47.526;18.986;2023-01-08T07:10:37;99873.22;;;7.36;96.89
70314;BME280;57725;47.526;18.986;2023-01-08T07:13:03;99886.22;;;7.36;96.78
70314;BME280;57725;47.526;18.986;2023-01-08T07:15:32;99888.03;;;7.34;96.90
70314;BME280;57725;47.526;18.986;2023-01-08T07:17:59;99888.88;;;7.35;96.72
70314;BME280;57725;47.526;18.986;2023-01-08T07:20:25;99874.97;;;7.36;96.97
70314;BME280;57725;47.526;18.986;2023-01-08T07:22:50;99868.91;;;7.35;96.80
70314;BME280;57725;47.526;18.986;2023-01-08T07:25:15;99868.03;;;7.36;96.89
70314;BME280;57725;47.526;18.986;2023-01-08T07:27:41;99865.50;;;7.33;97.05
70314;BME280;57725;47.526;18.986;2023-01-08T07:30:07;99870.63;;;7.36;96.86
70314;BME280;57725;47.526;18.986;2023-01-08T07:32:32;99868.06;;;7.35;96.80
70314;BME280;57725;47.526;18.986;2023-01-08T07:34:58;99868.03;;;7.36;96.79
70314;BME280;57725;47.526;18.986;2023-01-08T07:37:24;99862.81;;;7.36;96.99
70314;BME280;57725;47.526;18.986;2023-01-08T07:39:50;99862.81;;;7.36;96.99
70314;BME280;57725;47.526;18.986;2023-01-08T07:42:17;99867.19;;;7.36;96.90
70314;BME280;57725;47.526;18.986;2023-01-08T07:44:42;99856.84;;;7.33;96.83
70314;BME280;57725;47.526;18.986;2023-01-08T07:47:08;99862.88;;;7.35;96.64
70314;BME280;57725;47.526;18.986;2023-01-08T07:49:33;99863.72;;;7.35;96.85
70314;BME280;57725;47.526;18.986;2023-01-08T07:51:59;99861.97;;;7.36;96.89
70314;BME280;57725;47.526;18.986;2023-01-08T07:54:24;99863.72;;;7.35;96.89
70314;BME280;57725;47.526;18.986;2023-01-08T07:56:49;99865.47;;;7.35;97.06
70314;BME280;57725;47.526;18.986;2023-01-08T07:59:15;99856.78;;;7.36;96.88
70314;BME280;57725;47.526;18.986;2023-01-08T08:01:40;99859.41;;;7.34;96.89
70314;BME280;57725;47.526;18.986;2023-01-08T08:04:05;99844.69;;;7.33;96.96
70314;BME280;57725;47.526;18.986;2023-01-08T08:06:31;99851.56;;;7.36;97.07
70314;BME280;57725;47.526;18.986;2023-01-08T08:08:56;99857.66;;;7.35;96.98
70314;BME280;57725;47.526;18.986;2023-01-08T08:11:24;99854.22;;;7.34;96.88
70314;BME280;57725;47.526;18.986;2023-01-08T08:13:49;99849.00;;;7.34;96.60
70314;BME280;57725;47.526;18.986;2023-01-08T08:16:15;99851.56;;;7.36;96.61
70314;BME280;57725;47.526;18.986;2023-01-08T08:18:40;99836.88;;;7.35;96.85
70314;BME280;57725;47.526;18.986;2023-01-08T08:21:06;99836.91;;;7.33;96.88
70314;BME280;57725;47.526;18.986;2023-01-08T08:23:31;99831.69;;;7.33;97.04
70314;BME280;57725;47.526;18.986;2023-01-08T08:25:57;99833.38;;;7.36;96.85
70314;BME280;57725;47.526;18.986;2023-01-08T08:28:22;99832.50;;;7.35;97.11
70314;BME280;57725;47.526;18.986;2023-01-08T08:30:50;99832.50;;;7.35;96.93
70314;BME280;57725;47.526;18.986;2023-01-08T08:33:15;99827.31;;;7.35;96.83
70314;BME280;57725;47.526;18.986;2023-01-08T08:35:47;99822.16;;;7.34;96.85
70314;BME280;57725;47.526;18.986;2023-01-08T08:38:13;99822.09;;;7.35;96.85
70314;BME280;57725;47.526;18.986;2023-01-08T08:40:40;99817.81;;;7.34;96.90
70314;BME280;57725;47.526;18.986;2023-01-08T08:43:06;99812.59;;;7.34;97.04
70314;BME280;57725;47.526;18.986;2023-01-08T08:45:33;99811.72;;;7.35;96.88
70314;BME280;57725;47.526;18.986;2023-01-08T08:47:59;99819.50;;;7.35;96.94
70314;BME280;57725;47.526;18.986;2023-01-08T08:50:30;99823.81;;;7.36;96.70
70314;BME280;57725;47.526;18.986;2023-01-08T08:53:00;99816.06;;;7.35;96.90
70314;BME280;57725;47.526;18.986;2023-01-08T08:55:26;99818.63;;;7.36;96.91
70314;BME280;57725;47.526;18.986;2023-01-08T08:57:52;99808.34;;;7.32;96.86
70314;BME280;57725;47.526;18.986;2023-01-08T09:00:17;99806.56;;;7.34;97.00
70314;BME280;57725;47.526;18.986;2023-01-08T09:02:43;99822.06;;;7.37;97.04
70314;BME280;57725;47.526;18.986;2023-01-08T09:05:10;99824.66;;;7.37;96.83
70314;BME280;57725;47.526;18.986;2023-01-08T09:07:35;99816.00;;;7.36;97.03
70314;BME280;57725;47.526;18.986;2023-01-08T09:10:01;99809.97;;;7.36;96.79
70314;BME280;57725;47.526;18.986;2023-01-08T09:12:26;99808.25;;;7.35;96.71
70314;BME280;57725;47.526;18.986;2023-01-08T09:14:52;99809.97;;;7.36;96.77
70314;BME280;57725;47.526;18.986;2023-01-08T09:17:19;99811.72;;;7.35;96.90
70314;BME280;57725;47.526;18.986;2023-01-08T09:19:46;99803.94;;;7.34;96.91
70314;BME280;57725;47.526;18.986;2023-01-08T09:22:11;99806.50;;;7.35;96.87
70314;BME280;57725;47.526;18.986;2023-01-08T09:24:39;99800.41;;;7.36;96.69
70314;BME280;57725;47.526;18.986;2023-01-08T09:27:04;99802.16;;;7.36;97.12
70314;BME280;57725;47.526;18.986;2023-01-08T09:29:29;99798.66;;;7.37;96.75
70314;BME280;57725;47.526;18.986;2023-01-08T09:31:55;99797.81;;;7.36;96.75
70314;BME280;57725;47.526;18.986;2023-01-08T09:34:21;99792.59;;;7.36;96.69
70314;BME280;57725;47.526;18.986;2023-01-08T09:36:47;99793.47;;;7.37;96.94
70314;BME280;57725;47.526;18.986;2023-01-08T09:39:12;99785.66;;;7.37;96.89
70314;BME280;57725;47.526;18.986;2023-01-08T09:41:41;99785.66;;;7.37;96.68
70314;BME280;57725;47.526;18.986;2023-01-08T09:44:14;99773.59;;;7.34;96.50
70314;BME280;57725;47.526;18.986;2023-01-08T09:46:40;99764.00;;;7.36;96.89
70314;BME280;57725;47.526;18.986;2023-01-08T09:49:11;99764.84;;;7.37;96.74
70314;BME280;57725;47.526;18.986;2023-01-08T09:51:39;99754.50;;;7.35;96.91
70314;BME280;57725;47.526;18.986;2023-01-08T09:54:05;99757.94;;;7.36;96.93
70314;BME280;57725;47.526;18.986;2023-01-08T09:56:35;99751.09;;;7.33;96.83
70314;BME280;57725;47.526;18.986;2023-01-08T09:59:03;99753.59;;;7.36;96.69
70314;BME280;57725;47.526;18.986;2023-01-08T10:01:36;99747.50;;;7.37;97.11
70314;BME280;57725;47.526;18.986;2023-01-08T10:04:20;99749.25;;;7.37;96.89
70314;BME280;57725;47.526;18.986;2023-01-08T10:06:59;99729.34;;;7.36;96.90
70314;BME280;57725;47.526;18.986;2023-01-08T10:09:28;99725.84;;;7.37;97.01
70314;BME280;57725;47.526;18.986;2023-01-08T10:11:57;99718.94;;;7.36;97.08
70314;BME280;57725;47.526;18.986;2023-01-08T10:14:26;99721.50;;;7.37;96.75
70314;BME280;57725;47.526;18.986;2023-01-08T10:17:04;99713.69;;;7.37;96.82
70314;BME280;57725;47.526;18.986;2023-01-08T10:19:32;99709.44;;;7.35;97.10
70314;BME280;57725;47.526;18.986;2023-01-08T10:21:57;99701.59;;;7.36;97.04
70314;BME280;57725;47.526;18.986;2023-01-08T10:24:36;99703.28;;;7.37;96.96
70314;BME280;57725;47.526;18.986;2023-01-08T10:27:28;99705.88;;;7.37;96.91
70314;BME280;57725;47.526;18.986;2023-01-08T10:30:04;99702.38;;;7.38;96.84
70314;BME280;57725;47.526;18.986;2023-01-08T10:32:33;99699.84;;;7.37;96.85
70314;BME280;57725;47.526;18.986;2023-01-08T10:35:05;99698.97;;;7.36;96.94
70314;BME280;57725;47.526;18.986;2023-01-08T10:37:39;99692.94;;;7.36;97.00
70314;BME280;57725;47.526;18.986;2023-01-08T10:40:47;99690.22;;;7.39;96.95
70314;BME280;57725;47.526;18.986;2023-01-08T10:43:14;99672.94;;;7.38;96.97
70314;BME280;57725;47.526;18.986;2023-01-08T10:45:43;99680.72;;;7.38;96.94
70314;BME280;57725;47.526;18.986;2023-01-08T10:48:17;99676.44;;;7.37;97.13
70314;BME280;57725;47.526;18.986;2023-01-08T10:50:42;99669.47;;;7.37;97.06
70314;BME280;57725;47.526;18.986;2023-01-08T10:53:23;99670.38;;;7.36;96.93
70314;BME280;57725;47.526;18.986;2023-01-08T10:56:03;99669.41;;;7.39;96.92
70314;BME280;57725;47.526;18.986;2023-01-08T10:58:40;99671.19;;;7.38;97.11
70314;BME280;57725;47.526;18.986;2023-01-08T11:03:41;99653.78;;;7.39;96.94
70314;BME280;57725;47.526;18.986;2023-01-08T11:06:11;99662.41;;;7.41;97.26
70314;BME280;57725;47.526;18.986;2023-01-08T11:08:38;99661.59;;;7.39;97.09
70314;BME280;57725;47.526;18.986;2023-01-08T11:11:04;99644.25;;;7.39;97.00
70314;BME280;57725;47.526;18.986;2023-01-08T11:13:32;99635.59;;;7.39;96.94
70314;BME280;57725;47.526;18.986;2023-01-08T11:16:02;99634.69;;;7.40;97.02
70314;BME280;57725;47.526;18.986;2023-01-08T11:18:29;99626.00;;;7.41;96.80
70314;BME280;57725;47.526;18.986;2023-01-08T11:21:09;99623.38;;;7.41;97.15
70314;BME280;57725;47.526;18.986;2023-01-08T11:23:42;99613.97;;;7.38;96.79
70314;BME280;57725;47.526;18.986;2023-01-08T11:26:17;99606.09;;;7.40;97.04
70314;BME280;57725;47.526;18.986;2023-01-08T11:31:32;99599.94;;;7.42;96.93
70314;BME280;57725;47.526;18.986;2023-01-08T11:37:00;99591.28;;;7.42;96.98
70314;BME280;57725;47.526;18.986;2023-01-08T11:39:27;99586.13;;;7.40;96.78
70314;BME280;57725;47.526;18.986;2023-01-08T11:42:02;99590.38;;;7.43;97.15
70314;BME280;57725;47.526;18.986;2023-01-08T11:50:15;99568.69;;;7.44;97.00
70314;BME280;57725;47.526;18.986;2023-01-08T11:58:20;99566.03;;;7.45;97.08
70314;BME280;57725;47.526;18.986;2023-01-08T12:03:38;99551.38;;;7.43;96.92
70314;BME280;57725;47.526;18.986;2023-01-08T12:08:54;99553.03;;;7.45;97.17
70314;BME280;57725;47.526;18.986;2023-01-08T12:11:30;99551.28;;;7.46;97.21
70314;BME280;57725;47.526;18.986;2023-01-08T12:25:25;99551.22;;;7.47;97.02
70314;BME280;57725;47.526;18.986;2023-01-08T12:33:43;99549.47;;;7.48;97.25
70314;BME280;57725;47.526;18.986;2023-01-08T12:36:17;99551.28;;;7.46;97.20
70314;BME280;57725;47.526;18.986;2023-01-08T12:38:52;99550.38;;;7.47;96.80
70314;BME280;57725;47.526;18.986;2023-01-08T12:41:22;99544.28;;;7.48;97.11
70314;BME280;57725;47.526;18.986;2023-01-08T12:46:24;99540.75;;;7.49;97.06
70314;BME280;57725;47.526;18.986;2023-01-08T12:48:52;99543.38;;;7.49;96.98
70314;BME280;57725;47.526;18.986;2023-01-08T12:51:40;99542.47;;;7.50;97.14
70314;BME280;57725;47.526;18.986;2023-01-08T12:56:58;99548.50;;;7.50;96.79
70314;BME280;57725;47.526;18.986;2023-01-08T13:05:12;99530.28;;;7.50;96.94
70314;BME280;57725;47.526;18.986;2023-01-08T13:07:44;99521.66;;;7.50;97.17
70314;BME280;57725;47.526;18.986;2023-01-08T13:10:34;99522.44;;;7.52;97.08
70314;BME280;57725;47.526;18.986;2023-01-08T13:13:00;99521.56;;;7.51;97.21
70314;BME280;57725;47.526;18.986;2023-01-08T13:15:28;99524.97;;;7.53;97.04
70314;BME280;57725;47.526;18.986;2023-01-08T13:18:07;99525.88;;;7.52;97.00
70314;BME280;57725;47.526;18.986;2023-01-08T13:20:39;99519.81;;;7.52;97.01
70314;BME280;57725;47.526;18.986;2023-01-08T13:23:05;99518.06;;;7.52;96.91
70314;BME280;57725;47.526;18.986;2023-01-08T13:25:36;99531.03;;;7.54;97.34
70314;BME280;57725;47.526;18.986;2023-01-08T13:28:41;99523.19;;;7.55;97.15
70314;BME280;57725;47.526;18.986;2023-01-08T13:36:17;99522.28;;;7.56;97.13
70314;BME280;57725;47.526;18.986;2023-01-08T13:39:02;99515.31;;;7.57;97.04
70314;BME280;57725;47.526;18.986;2023-01-08T13:41:34;99520.53;;;7.57;97.00
70314;BME280;57725;47.526;18.986;2023-01-08T13:44:28;99515.31;;;7.57;97.25
70314;BME280;57725;47.526;18.986;2023-01-08T13:46:57;99498.84;;;7.56;96.95
70314;BME280;57725;47.526;18.986;2023-01-08T13:49:33;99502.31;;;7.57;96.98
70314;BME280;57725;47.526;18.986;2023-01-08T13:51:59;99498.91;;;7.55;97.19
70314;BME280;57725;47.526;18.986;2023-01-08T13:54:37;99501.50;;;7.55;97.01
70314;BME280;57725;47.526;18.986;2023-01-08T13:57:11;99503.16;;;7.57;97.04
70314;BME280;57725;47.526;18.986;2023-01-08T13:59:48;99505.72;;;7.59;96.94
70314;BME280;57725;47.526;18.986;2023-01-08T14:02:23;99508.31;;;7.59;97.23
70314;BME280;57725;47.526;18.986;2023-01-08T14:04:49;99509.22;;;7.58;97.08
70314;BME280;57725;47.526;18.986;2023-01-08T14:07:15;99490.09;;;7.59;97.02
70314;BME280;57725;47.526;18.986;2023-01-08T14:09:40;99503.06;;;7.60;97.26
70314;BME280;57725;47.526;18.986;2023-01-08T14:12:11;99496.22;;;7.58;97.10
70314;BME280;57725;47.526;18.986;2023-01-08T14:14:39;99500.47;;;7.60;97.06
70314;BME280;57725;47.526;18.986;2023-01-08T14:17:14;99498.72;;;7.61;96.95
70314;BME280;57725;47.526;18.986;2023-01-08T14:19:41;99495.25;;;7.60;97.01